John Oxley 2 — 7572QC — position and weather

sailwx.info

Track history (hours):
 
Tides and Currents Weather Stations Pressure Air Temp Water Temp Dewpoint Dewpoint Depression Visibility Wind Speed Wind Dir Waves Ship Positions

John Oxley 2

Last reported at 2017-Oct-22 09:20 UTC. Time now 2017-Oct-22 18:56 UTC.
Position S 27°25' E 153°08'.

Length 79 m.

MMSI: 503774000.

Date/timePositionNaut miles runAvg speedWind from/ knotsBaromVisibWave heightAir tempDewpointWater temp
2017-Oct-22 09:20S 27°25' E 153°08'2 6.2
2017-Oct-22 09:00S 27°23' E 153°09'5 7.0
2017-Oct-22 08:21S 27°19' E 153°12'2 6.9
2017-Oct-22 08:00S 27°17' E 153°13'4 7.0
2017-Oct-22 07:31S 27°14' E 153°13'3 6.4
2017-Oct-22 07:01S 27°11' E 153°14'4 6.7
2017-Oct-22 06:28S 27°08' E 153°17'1 0.2
2017-Oct-22 00:54S 27°07' E 153°17'3 8.3
2017-Oct-22 00:30S 27°10' E 153°15'4 7.8
2017-Oct-22 00:00S 27°13' E 153°13'4 8.3
2017-Oct-21 23:30S 27°17' E 153°12'4 8.1
2017-Oct-21 23:00S 27°21' E 153°11'5 0.3
2017-Oct-21 08:58S 27°25' E 153°09'3 7.3
2017-Oct-21 08:31S 27°22' E 153°10'4 7.1
2017-Oct-21 08:00S 27°19' E 153°12'4 7.0
2017-Oct-21 07:30S 27°16' E 153°13'3 7.0
2017-Oct-21 07:00S 27°12' E 153°13'3 6.3
2017-Oct-21 06:30S 27°10' E 153°15'3 6.1
2017-Oct-21 06:01S 27°07' E 153°17'2 0.4
2017-Oct-21 00:51S 27°05' E 153°18'3 8.7
2017-Oct-21 00:30S 27°08' E 153°17'4 8.3
2017-Oct-21 00:00S 27°11' E 153°13'4 8.1
2017-Oct-20 23:30S 27°15' E 153°12'4 8.3
2017-Oct-20 23:00S 27°19' E 153°12'4 7.4
2017-Oct-20 22:30S 27°22' E 153°10'2 4.6
2017-Oct-20 22:00S 27°25' E 153°09'0 0.0
2017-Oct-20 08:00S 27°25' E 153°09'4 7.1
2017-Oct-20 07:30S 27°22' E 153°10'3 6.9
2017-Oct-20 07:01S 27°19' E 153°12'4 7.0
2017-Oct-20 06:30S 27°15' E 153°13'4 6.9
2017-Oct-20 06:00S 27°12' E 153°13'3 6.3
2017-Oct-20 05:30S 27°10' E 153°15'5 0.9
2017-Oct-20 00:26S 27°05' E 153°18'4 8.5
2017-Oct-20 00:00S 27°09' E 153°16'4 8.1
2017-Oct-19 23:31S 27°12' E 153°13'4 8.0
2017-Oct-19 23:00S 27°15' E 153°12'4 8.0
2017-Oct-19 22:30S 27°19' E 153°12'4 7.7
2017-Oct-19 21:56S 27°23' E 153°09'2 0.1
2017-Oct-19 07:30S 27°25' E 153°09'3 7.1
2017-Oct-19 07:00S 27°22' E 153°10'4 6.9
2017-Oct-19 06:29S 27°19' E 153°12'3 6.8
2017-Oct-19 06:01S 27°15' E 153°13'3 6.7
2017-Oct-19 05:30S 27°12' E 153°13'3 6.3
2017-Oct-19 05:00S 27°10' E 153°15'5 0.9
2017-Oct-18 23:48S 27°06' E 153°18'2 8.3
2017-Oct-18 23:31S 27°08' E 153°17'4 8.0
2017-Oct-18 23:01S 27°11' E 153°14'4 7.8
2017-Oct-18 22:30S 27°15' E 153°12'4 8.0
2017-Oct-18 22:00S 27°18' E 153°12'4 7.8
2017-Oct-18 21:30S 27°22' E 153°10'3 0.2
2017-Oct-18 07:50S 27°25' E 153°09'3 7.7
2017-Oct-18 07:30S 27°23' E 153°10'4 7.5
2017-Oct-18 06:59S 27°19' E 153°12'3 6.9
2017-Oct-18 06:30S 27°16' E 153°13'3 6.8
2017-Oct-18 06:00S 27°13' E 153°13'3 6.5
2017-Oct-18 05:30S 27°10' E 153°15'5 0.9
2017-Oct-17 23:38S 27°06' E 153°18'2 8.9
2017-Oct-17 23:27S 27°07' E 153°17'4 8.3
2017-Oct-17 23:01S 27°10' E 153°15'4 7.3
2017-Oct-17 22:30S 27°13' E 153°13'4 7.9
2017-Oct-17 22:01S 27°17' E 153°12'4 7.7
2017-Oct-17 21:30S 27°21' E 153°11'3 5.6
2017-Oct-17 21:00S 27°23' E 153°09'2 0.1
2017-Oct-16 19:15S 27°25' E 153°09'2 7.6
2017-Oct-16 19:01S 27°23' E 153°10'5 7.2
2017-Oct-16 18:22S 27°19' E 153°12'3 7.0
2017-Oct-16 18:00S 27°17' E 153°14'3 6.8
2017-Oct-16 17:30S 27°14' E 153°16'5 7.1
2017-Oct-16 16:45S 27°10' E 153°20'2 6.8
2017-Oct-16 16:26S 27°08' E 153°19'3 6.4
2017-Oct-16 15:59S 27°05' E 153°18'2 3.4
2017-Oct-16 15:29S 27°03' E 153°17'0 0.0
2017-Oct-16 14:58S 27°03' E 153°17'0 0.0
2017-Oct-16 13:59S 27°03' E 153°17'0 0.0
2017-Oct-16 13:31S 27°03' E 153°17'0 0.0
2017-Oct-16 13:00S 27°03' E 153°17'0 0.0
2017-Oct-16 12:30S 27°03' E 153°17'0 0.0
2017-Oct-16 11:58S 27°03' E 153°17'0 0.4
2017-Oct-16 11:30S 27°03' E 153°17'4 8.3
2017-Oct-16 11:00S 27°07' E 153°19'4 8.7
2017-Oct-16 10:30S 27°11' E 153°19'4 7.9
2017-Oct-16 10:01S 27°14' E 153°16'4 7.8
2017-Oct-16 09:31S 27°17' E 153°13'4 7.8
2017-Oct-16 09:00S 27°21' E 153°11'4 7.8
2017-Oct-16 08:30S 27°24' E 153°09'0 0.0
2017-Oct-15 18:56S 27°25' E 153°09'3 7.5
2017-Oct-15 18:30S 27°22' E 153°10'4 7.5
2017-Oct-15 18:00S 27°19' E 153°13'4 7.0
2017-Oct-15 17:30S 27°15' E 153°15'4 7.0
2017-Oct-15 17:00S 27°13' E 153°17'4 7.3
2017-Oct-15 16:25S 27°09' E 153°20'3 6.9
2017-Oct-15 15:56S 27°06' E 153°19'3 6.2
2017-Oct-15 15:29S 27°03' E 153°17'0 0.2
2017-Oct-15 14:32S 27°03' E 153°17'0 0.0
2017-Oct-15 13:17S 27°03' E 153°17'0 0.0
2017-Oct-15 13:00S 27°03' E 153°17'0 0.0
2017-Oct-15 12:30S 27°03' E 153°17'0 0.0
2017-Oct-15 12:00S 27°03' E 153°17'3 6.8
2017-Oct-15 11:30S 27°06' E 153°19'5 9.3
2017-Oct-15 11:00S 27°11' E 153°19'4 8.4
2017-Oct-15 10:30S 27°14' E 153°16'4 7.9
2017-Oct-15 10:00S 27°17' E 153°13'1 2.5
2017-Oct-15 09:30S 27°18' E 153°13'4 8.0
2017-Oct-15 09:00S 27°22' E 153°10'4 7.1
2017-Oct-15 08:29S 27°25' E 153°09'0 0.0
2017-Oct-14 17:50S 27°25' E 153°09'2 7.6
2017-Oct-14 17:30S 27°23' E 153°10'4 7.4
2017-Oct-14 16:58S 27°19' E 153°12'3 7.2
2017-Oct-14 16:30S 27°16' E 153°14'4 7.1
2017-Oct-14 16:00S 27°14' E 153°16'4 7.2
2017-Oct-14 15:30S 27°11' E 153°19'3 6.7
2017-Oct-14 15:00S 27°07' E 153°19'3 6.7
2017-Oct-14 14:30S 27°04' E 153°18'1 2.4
2017-Oct-14 14:00S 27°03' E 153°17'0 0.0
2017-Oct-14 13:30S 27°03' E 153°17'0 0.0
2017-Oct-14 12:10S 27°03' E 153°17'0 0.0
2017-Oct-14 12:00S 27°03' E 153°17'0 0.0
2017-Oct-14 11:08S 27°03' E 153°17'0 0.0
2017-Oct-14 10:49S 27°03' E 153°17'0 0.3
2017-Oct-14 10:23S 27°03' E 153°17'3 7.6
2017-Oct-14 09:59S 27°06' E 153°19'5 9.7
2017-Oct-14 09:30S 27°10' E 153°19'4 8.9
2017-Oct-14 09:00S 27°14' E 153°16'4 8.5
2017-Oct-14 08:30S 27°17' E 153°13'4 8.2
2017-Oct-14 08:00S 27°21' E 153°11'4 8.2
2017-Oct-14 07:30S 27°24' E 153°09'0 0.0
2017-Oct-13 16:42S 27°25' E 153°09'2 7.6
2017-Oct-13 16:30S 27°23' E 153°09'4 7.3
2017-Oct-13 15:56S 27°20' E 153°12'3 7.0
2017-Oct-13 15:30S 27°17' E 153°13'4 7.0
2017-Oct-13 15:00S 27°14' E 153°16'5 7.0
2017-Oct-13 14:18S 27°10' E 153°19'3 7.0
2017-Oct-13 13:55S 27°08' E 153°19'3 6.9
2017-Oct-13 13:30S 27°05' E 153°18'2 3.6
2017-Oct-13 13:00S 27°03' E 153°17'0 0.0
2017-Oct-13 12:29S 27°03' E 153°17'0 0.0
2017-Oct-13 12:00S 27°03' E 153°17'0 0.0
2017-Oct-13 11:30S 27°03' E 153°17'0 0.0
2017-Oct-13 11:00S 27°03' E 153°17'0 0.0
2017-Oct-13 10:30S 27°03' E 153°17'0 0.0
2017-Oct-13 10:00S 27°03' E 153°17'2 4.9
2017-Oct-13 09:30S 27°05' E 153°18'5 9.1
2017-Oct-13 09:00S 27°10' E 153°19'5 8.9
2017-Oct-13 08:30S 27°14' E 153°16'4 8.5
2017-Oct-13 08:00S 27°17' E 153°14'4 8.5
2017-Oct-13 07:30S 27°21' E 153°11'4 8.3
2017-Oct-13 07:00S 27°24' E 153°09'3 3.8
2017-Oct-13 06:07S 27°27' E 153°06'0 0.0
2017-Oct-12 19:22S 27°27' E 153°06'3 0.9
2017-Oct-12 15:29S 27°25' E 153°09'4 7.2
2017-Oct-12 14:58S 27°21' E 153°11'4 7.1
2017-Oct-12 14:22S 27°18' E 153°13'3 7.1
2017-Oct-12 14:00S 27°15' E 153°15'4 7.1
2017-Oct-12 13:25S 27°12' E 153°18'3 7.0
2017-Oct-12 12:57S 27°09' E 153°19'3 6.9
2017-Oct-12 12:30S 27°06' E 153°19'3 6.4
2017-Oct-12 11:59S 27°03' E 153°17'  
Track history (hours):
 
Tides and Currents Weather Stations Pressure Air Temp Water Temp Dewpoint Dewpoint Depression Visibility Wind Speed Wind Dir Waves Ship Positions

John Oxley 2

Last reported at 2017-Oct-22 09:20 UTC. Time now 2017-Oct-22 18:56 UTC.
Position S 27°25' E 153°08'.

Length 79 m.

MMSI: 503774000.

Date/timePositionNaut miles runAvg speedWind from/ knotsBaromVisibWave heightAir tempDewpointWater temp
2017-Oct-22 09:20S 27°25' E 153°08'2 6.2
2017-Oct-22 09:00S 27°23' E 153°09'5 7.0
2017-Oct-22 08:21S 27°19' E 153°12'2 6.9
2017-Oct-22 08:00S 27°17' E 153°13'4 7.0
2017-Oct-22 07:31S 27°14' E 153°13'3 6.4
2017-Oct-22 07:01S 27°11' E 153°14'4 6.7
2017-Oct-22 06:28S 27°08' E 153°17'1 0.2
2017-Oct-22 00:54S 27°07' E 153°17'3 8.3
2017-Oct-22 00:30S 27°10' E 153°15'4 7.8
2017-Oct-22 00:00S 27°13' E 153°13'4 8.3
2017-Oct-21 23:30S 27°17' E 153°12'4 8.1
2017-Oct-21 23:00S 27°21' E 153°11'5 0.3
2017-Oct-21 08:58S 27°25' E 153°09'3 7.3
2017-Oct-21 08:31S 27°22' E 153°10'4 7.1
2017-Oct-21 08:00S 27°19' E 153°12'4 7.0
2017-Oct-21 07:30S 27°16' E 153°13'3 7.0
2017-Oct-21 07:00S 27°12' E 153°13'3 6.3
2017-Oct-21 06:30S 27°10' E 153°15'3 6.1
2017-Oct-21 06:01S 27°07' E 153°17'2 0.4
2017-Oct-21 00:51S 27°05' E 153°18'3 8.7
2017-Oct-21 00:30S 27°08' E 153°17'4 8.3
2017-Oct-21 00:00S 27°11' E 153°13'4 8.1
2017-Oct-20 23:30S 27°15' E 153°12'4 8.3
2017-Oct-20 23:00S 27°19' E 153°12'4 7.4
2017-Oct-20 22:30S 27°22' E 153°10'2 4.6
2017-Oct-20 22:00S 27°25' E 153°09'0 0.0
2017-Oct-20 08:00S 27°25' E 153°09'4 7.1
2017-Oct-20 07:30S 27°22' E 153°10'3 6.9
2017-Oct-20 07:01S 27°19' E 153°12'4 7.0
2017-Oct-20 06:30S 27°15' E 153°13'4 6.9
2017-Oct-20 06:00S 27°12' E 153°13'3 6.3
2017-Oct-20 05:30S 27°10' E 153°15'5 0.9
2017-Oct-20 00:26S 27°05' E 153°18'4 8.5
2017-Oct-20 00:00S 27°09' E 153°16'4 8.1
2017-Oct-19 23:31S 27°12' E 153°13'4 8.0
2017-Oct-19 23:00S 27°15' E 153°12'4 8.0
2017-Oct-19 22:30S 27°19' E 153°12'4 7.7
2017-Oct-19 21:56S 27°23' E 153°09'2 0.1
2017-Oct-19 07:30S 27°25' E 153°09'3 7.1
2017-Oct-19 07:00S 27°22' E 153°10'4 6.9
2017-Oct-19 06:29S 27°19' E 153°12'3 6.8
2017-Oct-19 06:01S 27°15' E 153°13'3 6.7
2017-Oct-19 05:30S 27°12' E 153°13'3 6.3
2017-Oct-19 05:00S 27°10' E 153°15'5 0.9
2017-Oct-18 23:48S 27°06' E 153°18'2 8.3
2017-Oct-18 23:31S 27°08' E 153°17'4 8.0
2017-Oct-18 23:01S 27°11' E 153°14'4 7.8
2017-Oct-18 22:30S 27°15' E 153°12'4 8.0
2017-Oct-18 22:00S 27°18' E 153°12'4 7.8
2017-Oct-18 21:30S 27°22' E 153°10'3 0.2
2017-Oct-18 07:50S 27°25' E 153°09'3 7.7
2017-Oct-18 07:30S 27°23' E 153°10'4 7.5
2017-Oct-18 06:59S 27°19' E 153°12'3 6.9
2017-Oct-18 06:30S 27°16' E 153°13'3 6.8
2017-Oct-18 06:00S 27°13' E 153°13'3 6.5
2017-Oct-18 05:30S 27°10' E 153°15'5 0.9
2017-Oct-17 23:38S 27°06' E 153°18'2 8.9
2017-Oct-17 23:27S 27°07' E 153°17'4 8.3
2017-Oct-17 23:01S 27°10' E 153°15'4 7.3
2017-Oct-17 22:30S 27°13' E 153°13'4 7.9
2017-Oct-17 22:01S 27°17' E 153°12'4 7.7
2017-Oct-17 21:30S 27°21' E 153°11'3 5.6
2017-Oct-17 21:00S 27°23' E 153°09'2 0.1
2017-Oct-16 19:15S 27°25' E 153°09'2 7.6
2017-Oct-16 19:01S 27°23' E 153°10'5 7.2
2017-Oct-16 18:22S 27°19' E 153°12'3 7.0
2017-Oct-16 18:00S 27°17' E 153°14'3 6.8
2017-Oct-16 17:30S 27°14' E 153°16'5 7.1
2017-Oct-16 16:45S 27°10' E 153°20'2 6.8
2017-Oct-16 16:26S 27°08' E 153°19'3 6.4
2017-Oct-16 15:59S 27°05' E 153°18'2 3.4
2017-Oct-16 15:29S 27°03' E 153°17'0 0.0
2017-Oct-16 14:58S 27°03' E 153°17'0 0.0
2017-Oct-16 13:59S 27°03' E 153°17'0 0.0
2017-Oct-16 13:31S 27°03' E 153°17'0 0.0
2017-Oct-16 13:00S 27°03' E 153°17'0 0.0
2017-Oct-16 12:30S 27°03' E 153°17'0 0.0
2017-Oct-16 11:58S 27°03' E 153°17'0 0.4
2017-Oct-16 11:30S 27°03' E 153°17'4 8.3
2017-Oct-16 11:00S 27°07' E 153°19'4 8.7
2017-Oct-16 10:30S 27°11' E 153°19'4 7.9
2017-Oct-16 10:01S 27°14' E 153°16'4 7.8
2017-Oct-16 09:31S 27°17' E 153°13'4 7.8
2017-Oct-16 09:00S 27°21' E 153°11'4 7.8
2017-Oct-16 08:30S 27°24' E 153°09'0 0.0
2017-Oct-15 18:56S 27°25' E 153°09'3 7.5
2017-Oct-15 18:30S 27°22' E 153°10'4 7.5
2017-Oct-15 18:00S 27°19' E 153°13'4 7.0
2017-Oct-15 17:30S 27°15' E 153°15'4 7.0
2017-Oct-15 17:00S 27°13' E 153°17'4 7.3
2017-Oct-15 16:25S 27°09' E 153°20'3 6.9
2017-Oct-15 15:56S 27°06' E 153°19'3 6.2
2017-Oct-15 15:29S 27°03' E 153°17'0 0.2
2017-Oct-15 14:32S 27°03' E 153°17'0 0.0
2017-Oct-15 13:17S 27°03' E 153°17'0 0.0
2017-Oct-15 13:00S 27°03' E 153°17'0 0.0
2017-Oct-15 12:30S 27°03' E 153°17'0 0.0
2017-Oct-15 12:00S 27°03' E 153°17'3 6.8
2017-Oct-15 11:30S 27°06' E 153°19'5 9.3
2017-Oct-15 11:00S 27°11' E 153°19'4 8.4
2017-Oct-15 10:30S 27°14' E 153°16'4 7.9
2017-Oct-15 10:00S 27°17' E 153°13'1 2.5
2017-Oct-15 09:30S 27°18' E 153°13'4 8.0
2017-Oct-15 09:00S 27°22' E 153°10'4 7.1
2017-Oct-15 08:29S 27°25' E 153°09'0 0.0
2017-Oct-14 17:50S 27°25' E 153°09'2 7.6
2017-Oct-14 17:30S 27°23' E 153°10'4 7.4
2017-Oct-14 16:58S 27°19' E 153°12'3 7.2
2017-Oct-14 16:30S 27°16' E 153°14'4 7.1
2017-Oct-14 16:00S 27°14' E 153°16'4 7.2
2017-Oct-14 15:30S 27°11' E 153°19'3 6.7
2017-Oct-14 15:00S 27°07' E 153°19'3 6.7
2017-Oct-14 14:30S 27°04' E 153°18'1 2.4
2017-Oct-14 14:00S 27°03' E 153°17'0 0.0
2017-Oct-14 13:30S 27°03' E 153°17'0 0.0
2017-Oct-14 12:10S 27°03' E 153°17'0 0.0
2017-Oct-14 12:00S 27°03' E 153°17'0 0.0
2017-Oct-14 11:08S 27°03' E 153°17'0 0.0
2017-Oct-14 10:49S 27°03' E 153°17'0 0.3
2017-Oct-14 10:23S 27°03' E 153°17'3 7.6
2017-Oct-14 09:59S 27°06' E 153°19'5 9.7
2017-Oct-14 09:30S 27°10' E 153°19'4 8.9
2017-Oct-14 09:00S 27°14' E 153°16'4 8.5
2017-Oct-14 08:30S 27°17' E 153°13'4 8.2
2017-Oct-14 08:00S 27°21' E 153°11'4 8.2
2017-Oct-14 07:30S 27°24' E 153°09'0 0.0
2017-Oct-13 16:42S 27°25' E 153°09'2 7.6
2017-Oct-13 16:30S 27°23' E 153°09'4 7.3
2017-Oct-13 15:56S 27°20' E 153°12'3 7.0
2017-Oct-13 15:30S 27°17' E 153°13'4 7.0
2017-Oct-13 15:00S 27°14' E 153°16'5 7.0
2017-Oct-13 14:18S 27°10' E 153°19'3 7.0
2017-Oct-13 13:55S 27°08' E 153°19'3 6.9
2017-Oct-13 13:30S 27°05' E 153°18'2 3.6
2017-Oct-13 13:00S 27°03' E 153°17'0 0.0
2017-Oct-13 12:29S 27°03' E 153°17'0 0.0
2017-Oct-13 12:00S 27°03' E 153°17'0 0.0
2017-Oct-13 11:30S 27°03' E 153°17'0 0.0
2017-Oct-13 11:00S 27°03' E 153°17'0 0.0
2017-Oct-13 10:30S 27°03' E 153°17'0 0.0
2017-Oct-13 10:00S 27°03' E 153°17'2 4.9
2017-Oct-13 09:30S 27°05' E 153°18'5 9.1
2017-Oct-13 09:00S 27°10' E 153°19'5 8.9
2017-Oct-13 08:30S 27°14' E 153°16'4 8.5
2017-Oct-13 08:00S 27°17' E 153°14'4 8.5
2017-Oct-13 07:30S 27°21' E 153°11'4 8.3
2017-Oct-13 07:00S 27°24' E 153°09'3 3.8
2017-Oct-13 06:07S 27°27' E 153°06'0 0.0
2017-Oct-12 19:22S 27°27' E 153°06'3 0.9
2017-Oct-12 15:29S 27°25' E 153°09'4 7.2
2017-Oct-12 14:58S 27°21' E 153°11'4 7.1
2017-Oct-12 14:22S 27°18' E 153°13'3 7.1
2017-Oct-12 14:00S 27°15' E 153°15'4 7.1
2017-Oct-12 13:25S 27°12' E 153°18'3 7.0
2017-Oct-12 12:57S 27°09' E 153°19'3 6.9
2017-Oct-12 12:30S 27°06' E 153°19'3 6.4
2017-Oct-12 11:59S 27°03' E 153°17'  

Dump ship's entire track history